sensor_id;sensor_type;location;lat;lon;timestamp;pressure;altitude;pressure_sealevel;temperature;humidity
80966;BME280;70426;37.772;-122.432;2023-12-20T00:00:07;100013.30;;;20.82;39.83
80966;BME280;70426;37.772;-122.432;2023-12-20T00:02:31;100011.29;;;20.87;39.40
80966;BME280;70426;37.772;-122.432;2023-12-20T00:04:56;100008.25;;;21.31;39.12
80966;BME280;70426;37.772;-122.432;2023-12-20T00:07:21;100010.22;;;20.84;39.67
80966;BME280;70426;37.772;-122.432;2023-12-20T00:09:46;100006.74;;;20.41;39.94
80966;BME280;70426;37.772;-122.432;2023-12-20T00:12:11;100008.84;;;20.42;39.95
80966;BME280;70426;37.772;-122.432;2023-12-20T00:14:36;100008.88;;;20.76;39.49
80966;BME280;70426;37.772;-122.432;2023-12-20T00:17:03;100013.40;;;20.28;40.03
80966;BME280;70426;37.772;-122.432;2023-12-20T00:19:26;100018.97;;;20.73;39.74
80966;BME280;70426;37.772;-122.432;2023-12-20T00:21:51;100020.66;;;20.75;39.67
80966;BME280;70426;37.772;-122.432;2023-12-20T00:24:16;100024.39;;;21.24;39.33
80966;BME280;70426;37.772;-122.432;2023-12-20T00:26:41;100021.88;;;20.52;39.96
80966;BME280;70426;37.772;-122.432;2023-12-20T00:29:06;100031.27;;;21.25;39.28
80966;BME280;70426;37.772;-122.432;2023-12-20T00:31:31;100034.32;;;20.53;39.93
80966;BME280;70426;37.772;-122.432;2023-12-20T00:33:56;100035.58;;;21.00;39.36
80966;BME280;70426;37.772;-122.432;2023-12-20T00:36:21;100035.57;;;20.96;39.42
80966;BME280;70426;37.772;-122.432;2023-12-20T00:38:48;100029.99;;;20.19;40.36
80966;BME280;70426;37.772;-122.432;2023-12-20T00:41:11;100027.73;;;20.93;39.65
80966;BME280;70426;37.772;-122.432;2023-12-20T00:43:36;100027.16;;;21.01;39.28
80966;BME280;70426;37.772;-122.432;2023-12-20T00:46:01;100024.60;;;21.12;39.39
80966;BME280;70426;37.772;-122.432;2023-12-20T00:48:26;100020.95;;;20.97;39.28
80966;BME280;70426;37.772;-122.432;2023-12-20T00:50:51;100021.03;;;20.79;39.40
80966;BME280;70426;37.772;-122.432;2023-12-20T00:53:16;100025.51;;;20.81;39.41
80966;BME280;70426;37.772;-122.432;2023-12-20T00:55:41;100024.80;;;20.27;40.05
80966;BME280;70426;37.772;-122.432;2023-12-20T00:58:06;100026.01;;;20.88;39.59
80966;BME280;70426;37.772;-122.432;2023-12-20T01:00:32;100021.77;;;20.56;39.69
80966;BME280;70426;37.772;-122.432;2023-12-20T01:02:57;100025.16;;;20.98;39.48
80966;BME280;70426;37.772;-122.432;2023-12-20T01:05:22;100023.28;;;20.07;40.09
80966;BME280;70426;37.772;-122.432;2023-12-20T01:07:47;100022.81;;;20.87;39.33
80966;BME280;70426;37.772;-122.432;2023-12-20T01:10:12;100019.81;;;20.89;39.56
80966;BME280;70426;37.772;-122.432;2023-12-20T01:12:37;100016.27;;;20.36;39.64
80966;BME280;70426;37.772;-122.432;2023-12-20T01:15:02;100016.11;;;20.96;39.19
80966;BME280;70426;37.772;-122.432;2023-12-20T01:17:27;100015.12;;;20.25;39.77
80966;BME280;70426;37.772;-122.432;2023-12-20T01:19:52;100011.75;;;20.28;40.04
80966;BME280;70426;37.772;-122.432;2023-12-20T01:22:17;100012.49;;;20.80;39.65
80966;BME280;70426;37.772;-122.432;2023-12-20T01:24:42;100010.34;;;20.39;39.46
80966;BME280;70426;37.772;-122.432;2023-12-20T01:27:07;100013.10;;;20.64;39.85
80966;BME280;70426;37.772;-122.432;2023-12-20T01:29:32;100013.69;;;20.47;39.76
80966;BME280;70426;37.772;-122.432;2023-12-20T01:31:57;100010.42;;;20.34;39.89
80966;BME280;70426;37.772;-122.432;2023-12-20T01:34:22;100011.25;;;20.28;39.73
80966;BME280;70426;37.772;-122.432;2023-12-20T01:36:47;100014.30;;;20.36;39.60
80966;BME280;70426;37.772;-122.432;2023-12-20T01:39:12;100011.98;;;20.52;40.02
80966;BME280;70426;37.772;-122.432;2023-12-20T01:41:37;100013.95;;;20.33;40.04
80966;BME280;70426;37.772;-122.432;2023-12-20T01:44:03;100016.22;;;20.57;39.69
80966;BME280;70426;37.772;-122.432;2023-12-20T01:46:28;100013.62;;;20.15;40.27
80966;BME280;70426;37.772;-122.432;2023-12-20T01:48:53;100012.47;;;20.15;40.33
80966;BME280;70426;37.772;-122.432;2023-12-20T01:51:18;100011.10;;;20.18;40.30
80966;BME280;70426;37.772;-122.432;2023-12-20T01:53:43;100016.15;;;20.44;40.26
80966;BME280;70426;37.772;-122.432;2023-12-20T01:56:08;100013.71;;;20.37;39.55
80966;BME280;70426;37.772;-122.432;2023-12-20T01:58:33;100014.27;;;20.64;39.52
80966;BME280;70426;37.772;-122.432;2023-12-20T02:00:58;100012.68;;;20.19;39.56
80966;BME280;70426;37.772;-122.432;2023-12-20T02:03:23;100013.09;;;20.44;39.32
80966;BME280;70426;37.772;-122.432;2023-12-20T02:05:49;100005.98;;;20.46;39.77
80966;BME280;70426;37.772;-122.432;2023-12-20T02:08:13;100009.49;;;20.22;39.68
80966;BME280;70426;37.772;-122.432;2023-12-20T02:10:38;100007.94;;;20.21;39.72
80966;BME280;70426;37.772;-122.432;2023-12-20T02:13:03;100005.01;;;20.57;39.17
80966;BME280;70426;37.772;-122.432;2023-12-20T02:15:28;99998.17;;;20.81;38.81
80966;BME280;70426;37.772;-122.432;2023-12-20T02:17:54;100003.20;;;20.04;39.53
80966;BME280;70426;37.772;-122.432;2023-12-20T02:20:18;100001.12;;;20.52;39.15
80966;BME280;70426;37.772;-122.432;2023-12-20T02:22:43;99993.54;;;20.18;39.47
80966;BME280;70426;37.772;-122.432;2023-12-20T02:25:08;99990.82;;;20.33;39.24
80966;BME280;70426;37.772;-122.432;2023-12-20T02:27:35;99984.08;;;20.34;39.34
80966;BME280;70426;37.772;-122.432;2023-12-20T02:29:58;99983.13;;;20.39;39.47
80966;BME280;70426;37.772;-122.432;2023-12-20T02:32:24;99990.24;;;20.38;39.25
80966;BME280;70426;37.772;-122.432;2023-12-20T02:34:49;99989.43;;;20.12;39.57
80966;BME280;70426;37.772;-122.432;2023-12-20T02:37:14;99984.33;;;21.12;38.57
80966;BME280;70426;37.772;-122.432;2023-12-20T02:39:39;99988.02;;;20.64;38.92
80966;BME280;70426;37.772;-122.432;2023-12-20T02:42:05;99983.68;;;20.17;39.35
80966;BME280;70426;37.772;-122.432;2023-12-20T02:44:30;99983.88;;;20.47;39.15
80966;BME280;70426;37.772;-122.432;2023-12-20T02:46:55;99981.92;;;19.88;39.81
80966;BME280;70426;37.772;-122.432;2023-12-20T02:49:21;99980.79;;;20.12;39.83
80966;BME280;70426;37.772;-122.432;2023-12-20T02:51:45;99979.56;;;20.56;39.44
80966;BME280;70426;37.772;-122.432;2023-12-20T02:54:11;99985.46;;;21.08;38.07
80966;BME280;70426;37.772;-122.432;2023-12-20T02:56:35;99972.25;;;20.94;38.85
80966;BME280;70426;37.772;-122.432;2023-12-20T02:59:01;99977.93;;;20.68;38.42
80966;BME280;70426;37.772;-122.432;2023-12-20T03:01:26;99974.18;;;20.83;38.32
80966;BME280;70426;37.772;-122.432;2023-12-20T03:03:51;99974.66;;;20.78;38.34
80966;BME280;70426;37.772;-122.432;2023-12-20T03:06:17;99977.55;;;20.91;38.42
80966;BME280;70426;37.772;-122.432;2023-12-20T03:08:42;99975.91;;;20.10;39.24
80966;BME280;70426;37.772;-122.432;2023-12-20T03:11:07;99975.79;;;20.62;38.51
80966;BME280;70426;37.772;-122.432;2023-12-20T03:13:32;99983.64;;;20.26;39.02
80966;BME280;70426;37.772;-122.432;2023-12-20T03:15:57;99988.08;;;20.16;38.78
80966;BME280;70426;37.772;-122.432;2023-12-20T03:18:22;99988.61;;;20.78;38.45
80966;BME280;70426;37.772;-122.432;2023-12-20T03:20:47;99986.08;;;20.25;38.76
80966;BME280;70426;37.772;-122.432;2023-12-20T03:23:12;99977.16;;;20.04;38.69
80966;BME280;70426;37.772;-122.432;2023-12-20T03:25:38;99981.48;;;20.29;39.00
80966;BME280;70426;37.772;-122.432;2023-12-20T03:28:03;99979.42;;;20.25;38.93
80966;BME280;70426;37.772;-122.432;2023-12-20T03:30:28;99985.77;;;20.32;38.27
80966;BME280;70426;37.772;-122.432;2023-12-20T03:32:53;99987.14;;;19.72;39.05
80966;BME280;70426;37.772;-122.432;2023-12-20T03:35:18;99996.11;;;19.47;39.43
80966;BME280;70426;37.772;-122.432;2023-12-20T03:37:43;99998.41;;;20.33;39.02
80966;BME280;70426;37.772;-122.432;2023-12-20T03:40:08;99997.78;;;20.05;39.04
80966;BME280;70426;37.772;-122.432;2023-12-20T03:42:33;99995.69;;;20.44;38.85
80966;BME280;70426;37.772;-122.432;2023-12-20T03:44:58;99998.20;;;20.09;39.08
80966;BME280;70426;37.772;-122.432;2023-12-20T03:47:23;99999.64;;;19.90;39.58
80966;BME280;70426;37.772;-122.432;2023-12-20T03:49:48;99993.63;;;20.34;39.53
80966;BME280;70426;37.772;-122.432;2023-12-20T03:52:13;99984.42;;;20.11;39.73
80966;BME280;70426;37.772;-122.432;2023-12-20T03:54:39;99977.98;;;20.17;39.61
80966;BME280;70426;37.772;-122.432;2023-12-20T03:57:04;99982.11;;;20.14;39.72
80966;BME280;70426;37.772;-122.432;2023-12-20T03:59:28;99978.39;;;19.87;40.01
80966;BME280;70426;37.772;-122.432;2023-12-20T04:01:53;99982.89;;;19.88;39.97
80966;BME280;70426;37.772;-122.432;2023-12-20T04:04:19;99981.75;;;19.96;40.17
80966;BME280;70426;37.772;-122.432;2023-12-20T04:06:43;99984.49;;;20.15;40.07
80966;BME280;70426;37.772;-122.432;2023-12-20T04:09:08;99986.69;;;20.15;40.03
80966;BME280;70426;37.772;-122.432;2023-12-20T04:11:34;99983.39;;;19.99;40.15
80966;BME280;70426;37.772;-122.432;2023-12-20T04:13:59;99992.74;;;20.00;39.41
80966;BME280;70426;37.772;-122.432;2023-12-20T04:16:24;99988.12;;;20.61;38.77
80966;BME280;70426;37.772;-122.432;2023-12-20T04:18:49;99990.68;;;20.85;38.66
80966;BME280;70426;37.772;-122.432;2023-12-20T04:21:14;99990.68;;;20.21;39.15
80966;BME280;70426;37.772;-122.432;2023-12-20T04:23:39;99991.38;;;20.06;39.30
80966;BME280;70426;37.772;-122.432;2023-12-20T04:26:04;99992.77;;;20.38;38.94
80966;BME280;70426;37.772;-122.432;2023-12-20T04:28:29;99990.13;;;20.54;39.11
80966;BME280;70426;37.772;-122.432;2023-12-20T04:30:54;99992.05;;;20.43;38.72
80966;BME280;70426;37.772;-122.432;2023-12-20T04:33:19;99985.46;;;20.29;39.78
80966;BME280;70426;37.772;-122.432;2023-12-20T04:35:44;99985.13;;;20.97;39.69
80966;BME280;70426;37.772;-122.432;2023-12-20T04:38:10;99993.97;;;20.49;40.79
80966;BME280;70426;37.772;-122.432;2023-12-20T04:40:35;99998.23;;;20.46;40.78
80966;BME280;70426;37.772;-122.432;2023-12-20T04:43:00;99994.48;;;20.52;40.76
80966;BME280;70426;37.772;-122.432;2023-12-20T04:45:25;99992.88;;;20.32;40.66
80966;BME280;70426;37.772;-122.432;2023-12-20T04:47:50;99997.60;;;20.25;41.08
80966;BME280;70426;37.772;-122.432;2023-12-20T04:50:15;100002.95;;;20.62;40.45
80966;BME280;70426;37.772;-122.432;2023-12-20T04:52:40;100003.62;;;20.43;40.82
80966;BME280;70426;37.772;-122.432;2023-12-20T04:55:05;99997.31;;;20.01;41.04
80966;BME280;70426;37.772;-122.432;2023-12-20T04:57:30;99999.74;;;20.20;41.48
80966;BME280;70426;37.772;-122.432;2023-12-20T04:59:55;99999.09;;;20.16;41.82
80966;BME280;70426;37.772;-122.432;2023-12-20T05:02:20;100000.61;;;20.79;41.14
80966;BME280;70426;37.772;-122.432;2023-12-20T05:04:45;99995.98;;;21.02;40.51
80966;BME280;70426;37.772;-122.432;2023-12-20T05:07:11;100000.69;;;20.92;41.00
80966;BME280;70426;37.772;-122.432;2023-12-20T05:09:36;100002.92;;;20.59;41.18
